Time;durP1;ratioP1;P1;durP2;ratioP2;P2;SDS_P1;SDS_P2;PMS_P1;PMS_P2;Temp;Humidity;BMP_temperature;BMP_pressure;BME280_temperature;BME280_humidity;BME280_pressure;Samples;Min_cycle;Max_cycle;Signal;HPM_P1;HPM_P2
2023/05/08 00:02:03;;;;;;;9.15;7.22;;;14.70;99.90;;;;;;5021673;28;20383;-36
2023/05/08 00:04:29;;;;;;;10.60;7.75;;;14.70;99.90;;;;;;5032943;28;20048;-35
2023/05/08 00:06:54;;;;;;;10.75;7.35;;;14.70;99.90;;;;;;5035288;28;20049;-35
2023/05/08 00:09:20;;;;;;;10.35;7.68;;;14.70;99.90;;;;;;5037804;28;20061;-35
2023/05/08 00:11:46;;;;;;;10.43;8.00;;;14.60;99.90;;;;;;5028752;28;20068;-35
2023/05/08 00:14:12;;;;;;;11.25;8.13;;;14.60;99.90;;;;;;5034296;28;20054;-36
2023/05/08 00:16:37;;;;;;;12.00;8.45;;;14.60;99.90;;;;;;5033206;28;20131;-35
2023/05/08 00:19:03;;;;;;;10.45;7.85;;;14.60;99.90;;;;;;5014566;28;20535;-35
2023/05/08 00:21:29;;;;;;;10.40;7.38;;;14.50;99.90;;;;;;5031698;28;20049;-35
2023/05/08 00:23:55;;;;;;;11.02;8.10;;;14.50;99.90;;;;;;5022098;28;20087;-35
2023/05/08 00:26:21;;;;;;;11.50;7.72;;;14.50;99.90;;;;;;5029103;28;20077;-35
2023/05/08 00:28:47;;;;;;;11.43;7.45;;;14.40;99.90;;;;;;5036175;28;20045;-35
2023/05/08 00:31:12;;;;;;;11.18;7.40;;;14.40;99.90;;;;;;5035213;28;20852;-35
2023/05/08 00:33:38;;;;;;;13.05;8.57;;;14.30;99.90;;;;;;5021663;28;20048;-35
2023/05/08 00:36:04;;;;;;;12.00;8.38;;;14.30;99.90;;;;;;5044487;28;20518;-35
2023/05/08 00:38:31;;;;;;;10.90;7.75;;;14.20;99.90;;;;;;5034473;28;20095;-35
2023/05/08 00:40:57;;;;;;;13.32;8.75;;;14.20;99.90;;;;;;5032982;28;20053;-35
2023/05/08 00:43:26;;;;;;;11.43;7.90;;;14.10;99.90;;;;;;5021621;28;20080;-35
2023/05/08 00:45:54;;;;;;;12.15;7.95;;;14.10;99.90;;;;;;5024863;28;20553;-35
2023/05/08 00:48:22;;;;;;;11.85;7.55;;;14.00;99.90;;;;;;5027164;28;20404;-36
2023/05/08 00:50:50;;;;;;;11.60;6.95;;;14.00;99.90;;;;;;5037043;28;20521;-35
2023/05/08 00:53:16;;;;;;;10.98;7.43;;;14.00;99.90;;;;;;5035212;28;20050;-35
2023/05/08 00:55:43;;;;;;;9.40;6.38;;;13.90;99.90;;;;;;5022757;28;20196;-35
2023/05/08 00:58:10;;;;;;;10.85;7.55;;;13.90;99.90;;;;;;5027902;28;20072;-35
2023/05/08 01:00:38;;;;;;;10.75;7.57;;;13.80;99.90;;;;;;5020091;28;20496;-36
2023/05/08 01:03:03;;;;;;;15.50;8.98;;;13.80;99.90;;;;;;5032755;28;20045;-35
2023/05/08 01:05:29;;;;;;;12.30;8.35;;;13.80;99.90;;;;;;5021781;28;20048;-36
2023/05/08 01:07:55;;;;;;;11.57;8.23;;;13.70;99.90;;;;;;5026654;28;20049;-36
2023/05/08 01:10:21;;;;;;;13.02;8.75;;;13.60;99.90;;;;;;5037087;28;20044;-36
2023/05/08 01:13:13;;;;;;;14.23;8.32;;;13.60;99.90;;;;;;5030141;28;20049;-35
2023/05/08 01:15:47;;;;;;;10.98;7.80;;;13.60;99.90;;;;;;5016234;28;20454;-36
2023/05/08 01:18:27;;;;;;;12.63;8.38;;;13.50;99.90;;;;;;5035052;28;20458;-39
2023/05/08 01:21:04;;;;;;;12.25;7.88;;;13.50;99.90;;;;;;5016095;28;20437;-39
2023/05/08 01:23:55;;;;;;;13.45;8.93;;;13.40;99.90;;;;;;5018532;28;20835;-37
2023/05/08 01:26:39;;;;;;;11.73;8.02;;;13.40;99.90;;;;;;5024969;28;20061;-36
2023/05/08 01:29:24;;;;;;;11.13;7.45;;;13.30;99.90;;;;;;5038227;28;20510;-35
2023/05/08 01:32:25;;;;;;;11.25;8.07;;;13.30;99.90;;;;;;5021910;28;20068;-35
2023/05/08 01:35:09;;;;;;;11.93;8.23;;;13.30;99.90;;;;;;5010012;28;20416;-35
2023/05/08 01:37:44;;;;;;;11.27;8.23;;;13.20;99.90;;;;;;5021817;28;20073;-36
2023/05/08 01:40:15;;;;;;;14.52;8.50;;;13.20;99.90;;;;;;5031436;28;20072;-36
2023/05/08 01:42:49;;;;;;;12.55;8.00;;;13.10;99.90;;;;;;5035564;28;20391;-35
2023/05/08 01:45:47;;;;;;;14.23;8.73;;;13.10;99.90;;;;;;5035682;28;20045;-35
2023/05/08 01:48:18;;;;;;;14.68;8.30;;;13.10;99.90;;;;;;5016845;28;20500;-35
2023/05/08 01:50:47;;;;;;;10.93;8.10;;;13.00;99.90;;;;;;5019307;28;20033;-36
2023/05/08 01:53:24;;;;;;;14.25;9.05;;;13.00;99.90;;;;;;5027729;28;20048;-35
2023/05/08 01:55:54;;;;;;;13.32;8.45;;;12.90;99.90;;;;;;5024277;28;20121;-36
2023/05/08 01:58:22;;;;;;;14.05;8.75;;;12.90;99.90;;;;;;5017862;28;20049;-36
2023/05/08 02:00:49;;;;;;;14.57;9.50;;;12.90;99.90;;;;;;5019439;28;20049;-36
2023/05/08 02:03:16;;;;;;;14.25;8.52;;;12.80;99.90;;;;;;5013638;28;20538;-36
2023/05/08 02:05:42;;;;;;;12.50;7.80;;;12.80;99.90;;;;;;5026978;28;20049;-36
2023/05/08 02:08:11;;;;;;;12.77;8.40;;;12.80;99.90;;;;;;5043561;28;20049;-37
2023/05/08 02:10:38;;;;;;;11.65;7.82;;;12.70;99.90;;;;;;5022532;28;20052;-35
2023/05/08 02:13:07;;;;;;;12.43;8.88;;;12.70;99.90;;;;;;5029966;28;20114;-35
2023/05/08 02:15:35;;;;;;;12.68;8.68;;;12.70;99.90;;;;;;5026418;28;20050;-37
2023/05/08 02:18:07;;;;;;;12.95;7.40;;;12.70;99.90;;;;;;5017877;28;20088;-35
2023/05/08 02:20:32;;;;;;;12.13;7.28;;;12.70;99.90;;;;;;5024667;28;20491;-35
2023/05/08 02:22:59;;;;;;;13.68;9.00;;;12.60;99.90;;;;;;5052387;28;20080;-36
2023/05/08 02:25:27;;;;;;;13.25;8.70;;;12.60;99.90;;;;;;5037226;28;20082;-36
2023/05/08 02:27:54;;;;;;;12.68;8.90;;;12.50;99.90;;;;;;5037555;28;20095;-35
2023/05/08 02:30:23;;;;;;;12.10;8.50;;;12.50;99.90;;;;;;5044288;28;20498;-35
2023/05/08 02:32:49;;;;;;;16.85;9.68;;;12.50;99.90;;;;;;5037705;28;20049;-36
2023/05/08 02:35:18;;;;;;;12.25;8.35;;;12.50;99.90;;;;;;5037055;28;21514;-36
2023/05/08 02:37:46;;;;;;;11.88;8.60;;;12.50;99.90;;;;;;5032124;28;20046;-43
2023/05/08 02:40:13;;;;;;;12.95;8.60;;;12.50;99.90;;;;;;5025677;28;20052;-35
2023/05/08 02:42:39;;;;;;;13.32;9.25;;;12.40;99.90;;;;;;5031027;28;20049;-36
2023/05/08 02:45:05;;;;;;;11.27;7.82;;;12.40;99.90;;;;;;5027653;28;20063;-35
2023/05/08 02:47:48;;;;;;;13.30;8.63;;;12.40;99.90;;;;;;5025901;28;20053;-36
2023/05/08 02:50:25;;;;;;;14.50;9.13;;;12.40;99.90;;;;;;5024423;28;20530;-36
2023/05/08 02:52:58;;;;;;;13.02;8.90;;;12.40;99.90;;;;;;5024352;28;20060;-37
2023/05/08 02:55:38;;;;;;;12.10;8.45;;;12.30;99.90;;;;;;5013065;28;20052;-35
2023/05/08 02:58:11;;;;;;;11.57;7.85;;;12.30;99.90;;;;;;5026951;28;20053;-40
2023/05/08 03:00:46;;;;;;;12.48;8.02;;;12.30;99.90;;;;;;5030233;28;20063;-35
2023/05/08 03:03:31;;;;;;;11.57;7.90;;;12.30;99.90;;;;;;5032525;28;20057;-35
2023/05/08 03:06:00;;;;;;;11.30;8.20;;;12.20;99.90;;;;;;5033695;28;20052;-36
2023/05/08 03:08:33;;;;;;;11.52;7.32;;;12.20;99.90;;;;;;5031494;28;20057;-35
2023/05/08 03:11:04;;;;;;;15.98;9.02;;;12.20;99.90;;;;;;5031733;28;20042;-35
2023/05/08 03:13:33;;;;;;;14.80;8.35;;;12.10;99.90;;;;;;5010409;28;20050;-35
2023/05/08 03:16:02;;;;;;;20.48;7.93;;;12.10;99.90;;;;;;5012345;28;20550;-35
2023/05/08 03:18:35;;;;;;;13.15;8.00;;;12.10;99.90;;;;;;5005243;28;20052;-35
2023/05/08 03:21:03;;;;;;;10.63;7.15;;;12.10;99.90;;;;;;5034231;28;20083;-35
2023/05/08 03:23:32;;;;;;;11.68;7.82;;;12.00;99.90;;;;;;5015632;28;20064;-36
2023/05/08 03:26:00;;;;;;;12.57;8.68;;;12.00;99.90;;;;;;5020416;28;20056;-35
2023/05/08 03:28:28;;;;;;;14.02;8.63;;;12.00;99.90;;;;;;5041223;28;20052;-36
2023/05/08 03:30:55;;;;;;;13.50;8.93;;;11.90;99.90;;;;;;5028488;28;20140;-35
2023/05/08 03:33:23;;;;;;;12.88;8.45;;;11.90;99.90;;;;;;5032988;28;20049;-35
2023/05/08 03:35:49;;;;;;;9.75;7.43;;;11.90;99.90;;;;;;5024764;28;20049;-35
2023/05/08 03:38:16;;;;;;;11.00;7.28;;;11.90;99.90;;;;;;5021109;28;20057;-35
2023/05/08 03:40:41;;;;;;;12.27;8.30;;;11.90;99.90;;;;;;5034835;28;20136;-35
2023/05/08 03:43:08;;;;;;;12.43;8.32;;;11.80;99.90;;;;;;5040396;28;20072;-36
2023/05/08 03:45:36;;;;;;;11.65;8.23;;;11.80;99.90;;;;;;5041227;28;20052;-36
2023/05/08 03:48:04;;;;;;;11.77;7.95;;;11.80;99.90;;;;;;5041606;28;20524;-36
2023/05/08 03:50:31;;;;;;;10.93;7.82;;;11.80;99.90;;;;;;5016162;28;24203;-35
2023/05/08 03:52:58;;;;;;;11.40;7.85;;;11.80;99.90;;;;;;5021639;28;20053;-35
2023/05/08 03:55:24;;;;;;;13.02;8.65;;;11.70;99.90;;;;;;5020953;28;20050;-35
2023/05/08 03:58:03;;;;;;;13.23;8.25;;;11.60;99.90;;;;;;5020012;28;20071;-35
2023/05/08 04:00:43;;;;;;;12.68;8.50;;;11.60;99.90;;;;;;5030287;28;20053;-35
2023/05/08 04:03:38;;;;;;;13.27;8.48;;;11.60;99.90;;;;;;5043019;28;20568;-35
2023/05/08 04:06:48;;;;;;;12.60;8.48;;;11.60;99.90;;;;;;5017834;28;20076;-35
2023/05/08 04:09:30;;;;;;;13.05;8.10;;;11.70;99.90;;;;;;5023795;28;20072;-35
2023/05/08 04:11:55;;;;;;;13.25;8.27;;;11.60;99.90;;;;;;5030013;28;20041;-36
2023/05/08 04:14:26;;;;;;;12.98;8.43;;;11.60;99.90;;;;;;5037847;28;20076;-37
2023/05/08 04:16:59;;;;;;;12.07;7.95;;;11.60;99.90;;;;;;5031102;28;20072;-36
2023/05/08 04:19:28;;;;;;;11.80;8.07;;;11.60;99.90;;;;;;5038161;28;20140;-35
2023/05/08 04:22:00;;;;;;;12.45;8.13;;;11.60;99.90;;;;;;5030886;28;20041;-35
2023/05/08 04:24:29;;;;;;;11.30;7.05;;;11.60;99.90;;;;;;5021564;28;20572;-35
2023/05/08 04:26:56;;;;;;;12.45;7.68;;;11.60;99.90;;;;;;5035575;28;20049;-35
2023/05/08 04:29:22;;;;;;;10.60;7.25;;;11.60;99.90;;;;;;5022042;28;20053;-35
2023/05/08 04:31:49;;;;;;;10.23;7.18;;;11.60;99.90;;;;;;5041112;28;20052;-35
2023/05/08 04:34:16;;;;;;;11.32;7.32;;;11.60;99.90;;;;;;5040822;28;20054;-35
2023/05/08 04:36:42;;;;;;;10.63;7.50;;;11.60;99.90;;;;;;5034275;28;20089;-35
2023/05/08 04:39:08;;;;;;;11.48;7.95;;;11.60;99.90;;;;;;5029947;28;20104;-36
2023/05/08 04:41:34;;;;;;;11.40;7.53;;;11.60;99.90;;;;;;5033098;28;20053;-35
2023/05/08 04:44:01;;;;;;;12.40;8.48;;;11.60;99.90;;;;;;5026536;28;20049;-35
2023/05/08 04:46:27;;;;;;;11.27;7.03;;;11.60;99.90;;;;;;5043162;28;20088;-35
2023/05/08 04:48:52;;;;;;;10.40;7.32;;;11.70;99.90;;;;;;5037226;28;20564;-36
2023/05/08 04:51:18;;;;;;;12.13;8.18;;;11.70;99.90;;;;;;5028069;28;20881;-35
2023/05/08 04:53:44;;;;;;;11.95;7.50;;;11.70;99.90;;;;;;5018234;28;20046;-36
2023/05/08 04:56:09;;;;;;;10.23;6.80;;;11.70;99.90;;;;;;5039939;28;20506;-35
2023/05/08 04:58:35;;;;;;;10.63;7.65;;;11.80;99.90;;;;;;5033117;28;20136;-35
2023/05/08 05:01:02;;;;;;;11.45;8.23;;;11.80;99.90;;;;;;5024196;28;20053;-36
2023/05/08 05:03:27;;;;;;;10.52;6.65;;;11.80;99.90;;;;;;5032152;28;20062;-35
2023/05/08 05:05:57;;;;;;;11.43;6.80;;;11.80;99.90;;;;;;5024094;28;20137;-35
2023/05/08 05:08:23;;;;;;;10.38;7.00;;;11.80;99.90;;;;;;5034600;28;20136;-36
2023/05/08 05:10:49;;;;;;;13.50;7.63;;;11.80;99.90;;;;;;5039001;28;20219;-35
2023/05/08 05:13:15;;;;;;;10.98;7.25;;;11.90;99.90;;;;;;5037106;28;20057;-35
2023/05/08 05:15:43;;;;;;;10.75;7.07;;;11.90;99.90;;;;;;5025126;28;20056;-35
2023/05/08 05:18:09;;;;;;;15.43;8.43;;;11.90;99.90;;;;;;5031721;28;20064;-35
2023/05/08 05:20:35;;;;;;;9.77;6.68;;;12.00;99.90;;;;;;5028413;28;20622;-35
2023/05/08 05:23:00;;;;;;;14.43;8.18;;;12.10;99.90;;;;;;5020515;28;20056;-35
2023/05/08 05:25:26;;;;;;;10.40;7.32;;;12.10;99.90;;;;;;5020918;28;20581;-35
2023/05/08 05:27:51;;;;;;;9.98;6.47;;;12.20;99.90;;;;;;5030339;28;20052;-41
2023/05/08 05:30:17;;;;;;;10.68;6.88;;;12.20;99.90;;;;;;5034899;28;20052;-35
2023/05/08 05:32:43;;;;;;;12.85;7.32;;;12.30;99.90;;;;;;5039987;28;20163;-35
2023/05/08 05:35:09;;;;;;;10.88;7.20;;;12.30;99.90;;;;;;5034036;28;20045;-35
2023/05/08 05:37:35;;;;;;;12.45;7.93;;;12.40;99.90;;;;;;5012312;28;20151;-35
2023/05/08 05:40:00;;;;;;;8.93;6.25;;;12.50;99.90;;;;;;5032080;28;20510;-36
2023/05/08 05:42:26;;;;;;;9.48;6.55;;;12.50;99.90;;;;;;5020764;28;20050;-35
2023/05/08 05:44:52;;;;;;;11.40;7.50;;;12.60;99.90;;;;;;5014987;28;20515;-35
2023/05/08 05:47:17;;;;;;;8.73;6.10;;;12.70;99.90;;;;;;5036523;28;20061;-37
2023/05/08 05:49:45;;;;;;;10.68;7.22;;;12.70;99.90;;;;;;5029585;28;20049;-37
2023/05/08 05:52:12;;;;;;;10.68;7.13;;;12.80;99.90;;;;;;5025022;28;20065;-37
2023/05/08 05:54:38;;;;;;;10.30;7.35;;;12.80;99.90;;;;;;5016932;28;20827;-37
2023/05/08 05:57:04;;;;;;;10.10;7.07;;;12.80;99.90;;;;;;5020054;28;20053;-36
2023/05/08 05:59:30;;;;;;;8.23;5.47;;;12.90;99.90;;;;;;5014466;28;20451;-37
2023/05/08 06:01:56;;;;;;;9.60;6.93;;;12.90;99.90;;;;;;5024696;28;20046;-37
2023/05/08 06:04:21;;;;;;;10.40;6.93;;;13.00;99.90;;;;;;5028864;28;20503;-36
2023/05/08 06:06:47;;;;;;;9.98;7.00;;;13.10;99.90;;;;;;5000236;28;20053;-36
2023/05/08 06:09:12;;;;;;;11.82;7.53;;;13.10;99.90;;;;;;5035896;28;20131;-36
2023/05/08 06:11:38;;;;;;;9.25;6.53;;;13.20;99.90;;;;;;5019791;28;20063;-36
2023/05/08 06:14:04;;;;;;;9.88;6.20;;;13.30;99.90;;;;;;5030616;28;20052;-37
2023/05/08 06:16:29;;;;;;;10.45;7.07;;;13.30;99.90;;;;;;5032216;28;20118;-36
2023/05/08 06:18:55;;;;;;;8.88;5.95;;;13.40;99.90;;;;;;5037445;28;20419;-36
2023/05/08 06:21:21;;;;;;;10.45;6.90;;;13.40;99.90;;;;;;5032814;28;20060;-36
2023/05/08 06:23:46;;;;;;;11.48;6.55;;;13.50;99.90;;;;;;5040370;28;20156;-37
2023/05/08 06:26:12;;;;;;;10.48;6.72;;;13.60;99.90;;;;;;5033047;28;20049;-36
2023/05/08 06:28:38;;;;;;;10.32;5.97;;;13.70;99.90;;;;;;5030514;28;20124;-37
2023/05/08 06:31:03;;;;;;;9.73;6.85;;;13.80;99.90;;;;;;5034640;28;20057;-37
2023/05/08 06:33:29;;;;;;;8.48;6.35;;;13.90;99.90;;;;;;5017467;28;20053;-36
2023/05/08 06:35:55;;;;;;;9.93;6.97;;;14.00;99.90;;;;;;5019068;28;20041;-38
2023/05/08 06:38:20;;;;;;;11.95;6.68;;;14.10;99.90;;;;;;5037643;28;20046;-36
2023/05/08 06:40:48;;;;;;;9.88;6.95;;;14.20;99.90;;;;;;5018359;28;20050;-36
2023/05/08 06:43:14;;;;;;;9.85;7.05;;;14.20;99.90;;;;;;5017310;28;20061;-36
2023/05/08 06:45:42;;;;;;;9.63;6.57;;;14.30;99.90;;;;;;5011597;28;20069;-36
2023/05/08 06:48:07;;;;;;;10.20;6.57;;;14.30;99.90;;;;;;5008638;28;20542;-37
2023/05/08 06:50:36;;;;;;;9.90;7.18;;;14.30;99.90;;;;;;5016490;28;20491;-37
2023/05/08 06:53:01;;;;;;;9.63;6.43;;;14.30;99.90;;;;;;5013062;28;20053;-37
2023/05/08 06:55:27;;;;;;;8.93;5.32;;;14.40;99.90;;;;;;5028676;28;20163;-37
2023/05/08 06:57:52;;;;;;;9.68;6.93;;;14.50;99.90;;;;;;5020717;28;20038;-37
2023/05/08 07:00:19;;;;;;;11.15;6.85;;;14.50;99.90;;;;;;5026266;28;20049;-36
2023/05/08 07:02:44;;;;;;;10.15;7.75;;;14.60;99.90;;;;;;5026397;28;20487;-37
2023/05/08 07:05:10;;;;;;;10.43;6.60;;;14.70;99.90;;;;;;5021144;28;20060;-38
2023/05/08 07:07:36;;;;;;;10.27;7.32;;;14.80;99.90;;;;;;5027953;28;20115;-37
2023/05/08 07:10:01;;;;;;;8.63;6.43;;;14.90;99.90;;;;;;5032696;28;20041;-38
2023/05/08 07:12:27;;;;;;;10.57;6.88;;;14.90;99.90;;;;;;5036026;28;20110;-36
2023/05/08 07:14:53;;;;;;;11.07;6.88;;;15.00;99.90;;;;;;5033918;28;20381;-36
2023/05/08 07:17:18;;;;;;;9.10;6.93;;;15.10;99.90;;;;;;5015413;28;20836;-36
2023/05/08 07:19:48;;;;;;;8.75;6.55;;;15.20;99.90;;;;;;5025654;28;20081;-37
2023/05/08 07:22:14;;;;;;;9.90;6.63;;;15.30;99.90;;;;;;5033032;28;20053;-36
2023/05/08 07:24:39;;;;;;;10.90;7.65;;;15.30;99.90;;;;;;5030614;28;20061;-36
2023/05/08 07:27:05;;;;;;;8.65;6.03;;;15.40;99.90;;;;;;5048641;28;20520;-36
2023/05/08 07:29:31;;;;;;;11.05;7.10;;;15.40;99.90;;;;;;5029536;28;20177;-37
2023/05/08 07:31:56;;;;;;;10.40;6.40;;;15.50;99.90;;;;;;5030920;28;20049;-38
2023/05/08 07:34:22;;;;;;;9.27;7.30;;;15.60;99.90;;;;;;5033481;28;20071;-37
2023/05/08 07:36:47;;;;;;;9.93;6.72;;;15.70;99.90;;;;;;5023628;28;20134;-38
2023/05/08 07:39:13;;;;;;;11.23;7.25;;;15.80;99.90;;;;;;5028738;28;20077;-48
2023/05/08 07:41:39;;;;;;;12.30;7.13;;;16.00;99.90;;;;;;5036437;28;20053;-37
2023/05/08 07:44:05;;;;;;;11.00;7.45;;;16.00;99.90;;;;;;5033751;28;20054;-37
2023/05/08 07:46:31;;;;;;;10.50;7.45;;;16.10;99.90;;;;;;5023283;28;20408;-37
2023/05/08 07:48:56;;;;;;;12.48;7.47;;;16.10;99.90;;;;;;5015340;28;20415;-37
2023/05/08 07:51:22;;;;;;;9.45;7.07;;;16.10;99.90;;;;;;5018592;28;20050;-37
2023/05/08 07:53:49;;;;;;;8.82;5.97;;;16.30;99.90;;;;;;5021762;28;20046;-37
2023/05/08 07:56:15;;;;;;;8.55;5.80;;;16.40;99.90;;;;;;5016379;28;20056;-37
2023/05/08 07:58:41;;;;;;;10.85;7.57;;;16.40;99.90;;;;;;5015843;28;20135;-36
2023/05/08 08:01:07;;;;;;;9.48;6.53;;;16.60;99.90;;;;;;5024207;28;20053;-36
2023/05/08 08:03:32;;;;;;;9.27;6.88;;;16.60;99.90;;;;;;5020626;28;20076;-36
2023/05/08 08:05:58;;;;;;;9.77;6.85;;;16.70;99.90;;;;;;5034532;28;20073;-35
2023/05/08 08:08:24;;;;;;;10.55;7.43;;;16.80;99.90;;;;;;5019644;28;20116;-35
2023/05/08 08:10:50;;;;;;;11.13;6.80;;;16.80;99.90;;;;;;5028954;28;20045;-37
2023/05/08 08:13:16;;;;;;;10.25;6.95;;;16.90;99.90;;;;;;5036840;28;20049;-36
2023/05/08 08:15:41;;;;;;;9.95;7.25;;;16.90;99.90;;;;;;5035744;28;20498;-35
2023/05/08 08:18:07;;;;;;;10.10;7.28;;;16.90;99.90;;;;;;5036828;28;20950;-36
2023/05/08 08:20:33;;;;;;;11.88;6.78;;;16.90;99.90;;;;;;5038321;28;20069;-36
2023/05/08 08:22:59;;;;;;;9.45;6.00;;;17.00;99.90;;;;;;5028171;28;20052;-35
2023/05/08 08:25:24;;;;;;;9.95;7.25;;;17.00;99.90;;;;;;5027895;28;20631;-35
2023/05/08 08:27:50;;;;;;;10.27;7.25;;;17.00;99.90;;;;;;5022309;28;20045;-36
2023/05/08 08:30:16;;;;;;;10.30;7.50;;;17.10;99.90;;;;;;5022653;28;20484;-36
2023/05/08 08:32:41;;;;;;;9.93;7.18;;;17.20;99.90;;;;;;5032978;28;20052;-36
2023/05/08 08:35:08;;;;;;;10.48;8.00;;;17.30;99.90;;;;;;5032112;28;20219;-36
2023/05/08 08:37:33;;;;;;;12.52;7.30;;;17.20;99.90;;;;;;5027345;28;20506;-35
2023/05/08 08:39:59;;;;;;;10.27;7.80;;;17.30;99.90;;;;;;5023721;28;20061;-36
2023/05/08 08:42:24;;;;;;;11.60;7.68;;;17.30;99.90;;;;;;5020273;28;20057;-36
2023/05/08 08:44:50;;;;;;;9.50;7.13;;;17.40;99.90;;;;;;5028910;28;20064;-35
2023/05/08 08:47:18;;;;;;;9.10;6.72;;;17.40;99.90;;;;;;5031267;28;20068;-35
2023/05/08 08:49:47;;;;;;;10.13;7.47;;;17.50;99.90;;;;;;5012633;28;20132;-36
2023/05/08 08:53:00;;;;;;;10.50;7.60;;;17.70;99.90;;;;;;5026968;28;20041;-35
2023/05/08 08:55:27;;;;;;;12.60;8.32;;;17.90;99.90;;;;;;5001992;28;20069;-36
2023/05/08 08:58:35;;;;;;;10.32;8.02;;;18.10;99.90;;;;;;5025945;28;20144;-36
2023/05/08 09:01:03;;;;;;;9.77;7.80;;;18.30;99.90;;;;;;5016384;28;20193;-36
2023/05/08 09:03:32;;;;;;;10.90;7.80;;;18.40;99.90;;;;;;5030196;28;20049;-36
2023/05/08 09:06:01;;;;;;;11.15;8.27;;;18.60;99.90;;;;;;5036485;28;20066;-36
2023/05/08 09:08:27;;;;;;;9.15;7.38;;;18.70;99.90;;;;;;5029186;28;20076;-36
2023/05/08 09:10:55;;;;;;;9.82;6.70;;;18.80;99.90;;;;;;5025916;28;20049;-35
2023/05/08 09:13:21;;;;;;;10.38;8.30;;;18.80;99.90;;;;;;5021120;28;20100;-36
2023/05/08 09:15:49;;;;;;;10.60;7.82;;;18.70;99.90;;;;;;5026066;28;20049;-35
2023/05/08 09:18:15;;;;;;;10.45;8.38;;;18.70;99.90;;;;;;5018851;28;20041;-35
2023/05/08 09:20:40;;;;;;;12.70;8.35;;;18.70;99.90;;;;;;5026266;28;20515;-36
2023/05/08 09:23:07;;;;;;;10.93;8.50;;;18.70;99.90;;;;;;5007618;28;20436;-36
2023/05/08 09:25:47;;;;;;;9.88;7.78;;;18.90;99.90;;;;;;5027501;28;20051;-36
2023/05/08 09:28:20;;;;;;;9.70;7.95;;;18.90;99.90;;;;;;5036045;28;20045;-37
2023/05/08 09:30:57;;;;;;;12.55;8.55;;;19.00;99.90;;;;;;5021758;28;20053;-37
2023/05/08 09:33:27;;;;;;;12.48;9.35;;;19.00;99.90;;;;;;5025605;28;20056;-38
2023/05/08 09:35:54;;;;;;;8.95;6.75;;;19.20;99.90;;;;;;5028492;28;20042;-37
2023/05/08 09:38:33;;;;;;;15.10;8.60;;;19.30;99.90;;;;;;5021235;28;20060;-37
2023/05/08 09:41:09;;;;;;;18.50;9.68;;;19.40;99.90;;;;;;5037089;28;20052;-37
2023/05/08 09:43:35;;;;;;;12.00;8.70;;;19.50;99.90;;;;;;5035437;28;20053;-37
2023/05/08 09:46:22;;;;;;;10.52;8.35;;;19.70;99.90;;;;;;5032954;28;20077;-36
2023/05/08 09:48:49;;;;;;;14.02;8.52;;;19.80;99.90;;;;;;5038528;28;20045;-36
2023/05/08 09:51:15;;;;;;;11.43;7.50;;;19.90;99.90;;;;;;5036324;28;21016;-36
2023/05/08 09:53:41;;;;;;;11.30;8.65;;;20.00;99.90;;;;;;5032154;28;20057;-36
2023/05/08 09:56:06;;;;;;;10.02;8.07;;;20.20;99.90;;;;;;5020528;28;20072;-36
2023/05/08 09:58:43;;;;;;;12.07;8.77;;;20.30;99.90;;;;;;5029559;28;20436;-35
2023/05/08 10:01:45;;;;;;;11.48;8.20;;;20.50;99.90;;;;;;5031423;28;20075;-36
2023/05/08 10:04:10;;;;;;;8.70;7.15;;;20.70;99.90;;;;;;5014567;28;20156;-35
2023/05/08 10:06:36;;;;;;;10.68;8.20;;;20.90;99.90;;;;;;5021009;28;20519;-36
2023/05/08 10:09:12;;;;;;;12.18;9.02;;;21.10;99.90;;;;;;5031535;28;20049;-36
2023/05/08 10:11:51;;;;;;;10.75;8.55;;;21.20;99.90;;;;;;5043161;28;20175;-35
2023/05/08 10:14:18;;;;;;;11.00;8.15;;;21.30;99.90;;;;;;5033978;28;20511;-36
2023/05/08 10:16:45;;;;;;;12.13;8.98;;;21.40;99.90;;;;;;5029357;28;20148;-35
2023/05/08 10:19:14;;;;;;;15.95;8.82;;;21.50;99.90;;;;;;5021351;28;20049;-35
2023/05/08 10:21:43;;;;;;;12.25;9.68;;;21.60;99.90;;;;;;5019391;28;20076;-35
2023/05/08 10:24:14;;;;;;;12.48;8.40;;;21.70;99.90;;;;;;5037170;28;20646;-35
2023/05/08 10:26:42;;;;;;;11.38;8.73;;;21.80;99.90;;;;;;5034776;28;20052;-35
2023/05/08 10:29:17;;;;;;;11.90;9.45;;;21.90;99.90;;;;;;5011208;28;20054;-36
2023/05/08 10:31:45;;;;;;;10.25;8.23;;;21.90;99.90;;;;;;5023238;28;20519;-35
2023/05/08 10:34:17;;;;;;;12.57;8.98;;;22.00;99.90;;;;;;5029627;28;20045;-35
2023/05/08 10:36:44;;;;;;;11.75;8.75;;;22.10;99.90;;;;;;5033609;28;20056;-35
2023/05/08 10:39:12;;;;;;;10.07;7.55;;;22.20;99.90;;;;;;5037126;28;20194;-36
2023/05/08 10:41:38;;;;;;;8.73;6.70;;;22.20;99.90;;;;;;5027355;28;20098;-35
2023/05/08 10:44:04;;;;;;;9.80;7.32;;;22.40;99.90;;;;;;5023534;28;20137;-35
2023/05/08 10:46:38;;;;;;;11.95;9.00;;;22.60;99.90;;;;;;5022823;28;20049;-35
2023/05/08 10:49:18;;;;;;;11.40;7.78;;;22.70;99.90;;;;;;5012290;28;20057;-35
2023/05/08 10:52:03;;;;;;;12.02;9.27;;;22.60;99.90;;;;;;5033807;28;20069;-35
2023/05/08 10:55:03;;;;;;;9.93;7.88;;;22.30;99.90;;;;;;5024394;28;20056;-35
2023/05/08 10:57:29;;;;;;;11.70;9.02;;;22.30;99.90;;;;;;5023210;28;20115;-35
2023/05/08 10:59:55;;;;;;;13.05;9.75;;;22.30;99.90;;;;;;5021504;28;20570;-35
2023/05/08 11:02:35;;;;;;;12.75;9.30;;;22.30;99.90;;;;;;5008756;28;20148;-35
2023/05/08 11:05:18;;;;;;;13.15;9.90;;;22.40;99.90;;;;;;5021064;28;20338;-35
2023/05/08 11:07:54;;;;;;;;;;;22.60;99.90;;;;;;5030175;28;20060;-35
2023/05/08 11:10:20;;;;;;;11.68;9.45;;;22.60;99.90;;;;;;5012166;28;20019;-35
2023/05/08 11:12:49;;;;;;;12.52;9.70;;;22.80;99.90;;;;;;5015093;28;20061;-35
2023/05/08 11:15:14;;;;;;;15.02;10.27;;;23.10;99.90;;;;;;5017725;28;20050;-35
2023/05/08 11:17:45;;;;;;;13.40;9.85;;;23.20;99.90;;;;;;5019711;28;20045;-35
2023/05/08 11:20:11;;;;;;;14.35;10.25;;;23.20;99.90;;;;;;5036901;28;20037;-35
2023/05/08 11:22:37;;;;;;;12.50;10.05;;;23.10;99.90;;;;;;5038504;28;20143;-35
2023/05/08 11:25:09;;;;;;;12.93;10.23;;;23.30;99.90;;;;;;5031758;28;20085;-35
2023/05/08 11:27:35;;;;;;;;;;;23.20;99.90;;;;;;5037282;28;20484;-35
2023/05/08 11:30:23;;;;;;;14.35;10.80;;;23.20;99.90;;;;;;5029749;28;19925;-35
2023/05/08 11:33:04;;;;;;;13.52;10.18;;;23.30;99.90;;;;;;5026246;28;20491;-35
2023/05/08 11:35:58;;;;;;;13.27;10.35;;;23.20;99.90;;;;;;5026378;28;20046;-35
2023/05/08 11:38:28;;;;;;;13.40;9.73;;;23.00;99.90;;;;;;5029097;28;20080;-39
2023/05/08 11:40:54;;;;;;;11.18;8.63;;;22.80;99.90;;;;;;5024362;28;20533;-35
2023/05/08 11:43:32;;;;;;;13.85;10.27;;;22.80;99.90;;;;;;5018557;28;20140;-36
2023/05/08 11:46:09;;;;;;;16.23;10.90;;;22.90;99.90;;;;;;5012070;28;20064;-35
2023/05/08 11:48:35;;;;;;;14.98;10.70;;;23.00;99.90;;;;;;5039719;28;20163;-35
2023/05/08 11:51:02;;;;;;;14.02;10.75;;;23.10;99.90;;;;;;5030472;28;20143;-35
2023/05/08 11:53:30;;;;;;;14.85;9.95;;;23.10;99.90;;;;;;5031952;28;20069;-35
2023/05/08 11:55:56;;;;;;;15.23;10.23;;;23.30;99.90;;;;;;5030758;28;20045;-35
2023/05/08 11:58:22;;;;;;;16.17;10.20;;;23.30;99.90;;;;;;5034669;28;20495;-35
2023/05/08 12:00:48;;;;;;;14.40;9.85;;;23.30;99.90;;;;;;5030170;28;20057;-37
2023/05/08 12:03:17;;;;;;;13.63;10.77;;;23.20;99.90;;;;;;5022015;28;20060;-35
2023/05/08 12:05:43;;;;;;;13.40;10.45;;;23.10;99.90;;;;;;5027741;28;20123;-35
2023/05/08 12:08:10;;;;;;;13.00;9.98;;;23.20;99.90;;;;;;5020096;28;20496;-35
2023/05/08 12:10:56;;;;;;;13.13;10.60;;;23.10;99.90;;;;;;5026618;28;20118;-35
2023/05/08 12:13:25;;;;;;;13.27;10.20;;;22.90;99.90;;;;;;5023120;28;20744;-35
2023/05/08 12:15:53;;;;;;;13.02;10.32;;;22.80;99.90;;;;;;5033198;28;20037;-35
2023/05/08 12:18:20;;;;;;;15.25;11.60;;;22.70;99.90;;;;;;5040244;28;20136;-35
2023/05/08 12:20:55;;;;;;;13.77;10.15;;;22.60;99.90;;;;;;5035875;28;20533;-35
2023/05/08 12:23:23;;;;;;;14.20;10.30;;;22.50;99.90;;;;;;5034510;28;20052;-35
2023/05/08 12:25:54;;;;;;;15.00;11.77;;;22.40;99.90;;;;;;5034563;28;20064;-36
2023/05/08 12:28:20;;;;;;;15.82;11.15;;;22.30;99.90;;;;;;5036331;28;20049;-35
2023/05/08 12:30:47;;;;;;;16.27;11.38;;;22.20;99.90;;;;;;5014385;28;20049;-35
2023/05/08 12:33:13;;;;;;;15.65;11.15;;;22.10;99.90;;;;;;5032758;28;20080;-35
2023/05/08 12:35:39;;;;;;;17.10;12.07;;;22.00;99.90;;;;;;5034634;28;20183;-35
2023/05/08 12:38:06;;;;;;;22.55;12.15;;;22.10;99.90;;;;;;5038884;28;20049;-35
2023/05/08 12:40:35;;;;;;;16.50;11.60;;;22.10;99.90;;;;;;5045506;28;20519;-35
2023/05/08 12:43:02;;;;;;;18.60;12.55;;;22.10;99.90;;;;;;5043376;28;20060;-35
2023/05/08 12:45:33;;;;;;;14.70;11.52;;;22.30;99.90;;;;;;5038455;28;20121;-35
2023/05/08 12:48:01;;;;;;;17.92;12.43;;;22.20;99.90;;;;;;5032761;28;20045;-35
2023/05/08 12:50:29;;;;;;;14.32;11.15;;;22.10;99.90;;;;;;5011770;28;20049;-35